sensor_id;sensor_type;location;lat;lon;timestamp;temperature;humidity
64951;DHT22;51482;47.014;7.652;2023-06-22T00:01:58;19.80;99.90
64951;DHT22;51482;47.014;7.652;2023-06-22T00:04:24;19.80;99.90
64951;DHT22;51482;47.014;7.652;2023-06-22T00:06:50;19.70;99.90
64951;DHT22;51482;47.014;7.652;2023-06-22T00:09:16;19.70;99.90
64951;DHT22;51482;47.014;7.652;2023-06-22T00:11:41;20.40;99.90
64951;DHT22;51482;47.014;7.652;2023-06-22T00:14:07;19.30;99.90
64951;DHT22;51482;47.014;7.652;2023-06-22T00:16:33;19.70;99.90
64951;DHT22;51482;47.014;7.652;2023-06-22T00:18:59;20.00;99.90
64951;DHT22;51482;47.014;7.652;2023-06-22T00:21:29;19.30;99.90
64951;DHT22;51482;47.014;7.652;2023-06-22T00:23:55;19.50;99.90
64951;DHT22;51482;47.014;7.652;2023-06-22T00:26:21;19.40;99.90
64951;DHT22;51482;47.014;7.652;2023-06-22T00:28:47;19.50;99.90
64951;DHT22;51482;47.014;7.652;2023-06-22T00:31:13;19.80;99.90
64951;DHT22;51482;47.014;7.652;2023-06-22T00:33:38;19.40;99.90
64951;DHT22;51482;47.014;7.652;2023-06-22T00:36:05;19.40;99.90
64951;DHT22;51482;47.014;7.652;2023-06-22T00:38:30;19.50;99.90
64951;DHT22;51482;47.014;7.652;2023-06-22T00:40:56;19.40;99.90
64951;DHT22;51482;47.014;7.652;2023-06-22T00:43:22;19.40;99.90
64951;DHT22;51482;47.014;7.652;2023-06-22T00:45:47;19.90;99.90
64951;DHT22;51482;47.014;7.652;2023-06-22T00:48:13;19.40;99.90
64951;DHT22;51482;47.014;7.652;2023-06-22T00:50:39;19.30;99.90
64951;DHT22;51482;47.014;7.652;2023-06-22T00:53:07;19.30;99.90
64951;DHT22;51482;47.014;7.652;2023-06-22T00:55:44;19.70;99.90
64951;DHT22;51482;47.014;7.652;2023-06-22T00:58:11;19.20;99.90
64951;DHT22;51482;47.014;7.652;2023-06-22T01:00:38;19.10;99.90
64951;DHT22;51482;47.014;7.652;2023-06-22T01:03:04;19.10;99.90
64951;DHT22;51482;47.014;7.652;2023-06-22T01:05:32;18.50;99.90
64951;DHT22;51482;47.014;7.652;2023-06-22T01:10:44;19.00;99.90
64951;DHT22;51482;47.014;7.652;2023-06-22T01:13:32;19.10;99.90
64951;DHT22;51482;47.014;7.652;2023-06-22T01:16:10;19.10;99.90
64951;DHT22;51482;47.014;7.652;2023-06-22T01:18:42;19.00;99.90
64951;DHT22;51482;47.014;7.652;2023-06-22T01:21:09;19.00;99.90
64951;DHT22;51482;47.014;7.652;2023-06-22T01:23:51;19.00;99.90
64951;DHT22;51482;47.014;7.652;2023-06-22T01:26:25;19.30;99.90
64951;DHT22;51482;47.014;7.652;2023-06-22T01:28:55;19.40;99.90
64951;DHT22;51482;47.014;7.652;2023-06-22T01:31:27;18.80;99.90
64951;DHT22;51482;47.014;7.652;2023-06-22T01:34:00;19.00;99.90
64951;DHT22;51482;47.014;7.652;2023-06-22T01:36:27;19.00;99.90
64951;DHT22;51482;47.014;7.652;2023-06-22T01:38:53;18.90;99.90
64951;DHT22;51482;47.014;7.652;2023-06-22T01:41:20;19.10;99.90
64951;DHT22;51482;47.014;7.652;2023-06-22T01:43:47;18.80;99.90
64951;DHT22;51482;47.014;7.652;2023-06-22T01:46:13;19.10;99.90
64951;DHT22;51482;47.014;7.652;2023-06-22T01:48:40;18.70;99.90
64951;DHT22;51482;47.014;7.652;2023-06-22T01:51:06;18.60;99.90
64951;DHT22;51482;47.014;7.652;2023-06-22T01:53:31;18.60;99.90
64951;DHT22;51482;47.014;7.652;2023-06-22T01:55:57;18.60;99.90
64951;DHT22;51482;47.014;7.652;2023-06-22T01:58:28;18.60;99.90
64951;DHT22;51482;47.014;7.652;2023-06-22T02:01:14;18.50;99.90
64951;DHT22;51482;47.014;7.652;2023-06-22T02:04:05;19.00;99.90
64951;DHT22;51482;47.014;7.652;2023-06-22T02:06:37;18.50;99.90
64951;DHT22;51482;47.014;7.652;2023-06-22T02:09:09;18.40;99.90
64951;DHT22;51482;47.014;7.652;2023-06-22T02:11:37;18.40;99.90
64951;DHT22;51482;47.014;7.652;2023-06-22T02:14:05;18.40;99.90
64951;DHT22;51482;47.014;7.652;2023-06-22T02:16:32;18.40;99.90
64951;DHT22;51482;47.014;7.652;2023-06-22T02:19:01;18.70;99.90
64951;DHT22;51482;47.014;7.652;2023-06-22T02:21:31;18.30;99.90
64951;DHT22;51482;47.014;7.652;2023-06-22T02:23:57;18.30;99.90
64951;DHT22;51482;47.014;7.652;2023-06-22T02:26:24;18.30;99.90
64951;DHT22;51482;47.014;7.652;2023-06-22T02:28:50;18.20;99.90
64951;DHT22;51482;47.014;7.652;2023-06-22T02:31:16;18.20;99.90
64951;DHT22;51482;47.014;7.652;2023-06-22T02:33:41;18.20;99.90
64951;DHT22;51482;47.014;7.652;2023-06-22T02:36:07;18.10;99.90
64951;DHT22;51482;47.014;7.652;2023-06-22T02:38:35;18.10;99.90
64951;DHT22;51482;47.014;7.652;2023-06-22T02:41:02;18.10;99.90
64951;DHT22;51482;47.014;7.652;2023-06-22T02:43:28;18.20;99.90
64951;DHT22;51482;47.014;7.652;2023-06-22T02:45:54;18.50;99.90
64951;DHT22;51482;47.014;7.652;2023-06-22T02:48:19;18.00;99.90
64951;DHT22;51482;47.014;7.652;2023-06-22T02:50:45;18.40;99.90
64951;DHT22;51482;47.014;7.652;2023-06-22T02:53:10;18.10;99.90
64951;DHT22;51482;47.014;7.652;2023-06-22T02:55:36;18.10;99.90
64951;DHT22;51482;47.014;7.652;2023-06-22T02:58:01;18.00;99.90
64951;DHT22;51482;47.014;7.652;2023-06-22T03:00:30;18.10;99.90
64951;DHT22;51482;47.014;7.652;2023-06-22T03:02:57;17.90;99.90
64951;DHT22;51482;47.014;7.652;2023-06-22T03:05:23;18.00;99.90
64951;DHT22;51482;47.014;7.652;2023-06-22T03:07:49;17.90;99.90
64951;DHT22;51482;47.014;7.652;2023-06-22T03:10:15;17.80;99.90
64951;DHT22;51482;47.014;7.652;2023-06-22T03:12:41;17.80;99.90
64951;DHT22;51482;47.014;7.652;2023-06-22T03:15:09;17.80;99.90
64951;DHT22;51482;47.014;7.652;2023-06-22T03:17:35;17.70;99.90
64951;DHT22;51482;47.014;7.652;2023-06-22T03:20:02;17.70;99.90
64951;DHT22;51482;47.014;7.652;2023-06-22T03:22:34;17.70;99.90
64951;DHT22;51482;47.014;7.652;2023-06-22T03:25:01;17.60;99.90
64951;DHT22;51482;47.014;7.652;2023-06-22T03:27:26;17.60;99.90
64951;DHT22;51482;47.014;7.652;2023-06-22T03:29:52;17.60;99.90
64951;DHT22;51482;47.014;7.652;2023-06-22T03:32:17;17.70;99.90
64951;DHT22;51482;47.014;7.652;2023-06-22T03:34:43;17.70;99.90
64951;DHT22;51482;47.014;7.652;2023-06-22T03:37:13;17.70;99.90
64951;DHT22;51482;47.014;7.652;2023-06-22T03:39:38;17.70;99.90
64951;DHT22;51482;47.014;7.652;2023-06-22T03:42:04;17.60;99.90
64951;DHT22;51482;47.014;7.652;2023-06-22T03:44:30;17.60;99.90
64951;DHT22;51482;47.014;7.652;2023-06-22T03:46:56;17.70;99.90
64951;DHT22;51482;47.014;7.652;2023-06-22T03:49:21;17.60;99.90
64951;DHT22;51482;47.014;7.652;2023-06-22T03:51:47;17.50;99.90
64951;DHT22;51482;47.014;7.652;2023-06-22T03:54:12;17.70;99.90
64951;DHT22;51482;47.014;7.652;2023-06-22T03:56:38;17.50;99.90
64951;DHT22;51482;47.014;7.652;2023-06-22T03:59:03;17.50;99.90
64951;DHT22;51482;47.014;7.652;2023-06-22T04:01:29;17.40;99.90
64951;DHT22;51482;47.014;7.652;2023-06-22T04:03:54;17.40;99.90
64951;DHT22;51482;47.014;7.652;2023-06-22T04:06:20;17.40;99.90
64951;DHT22;51482;47.014;7.652;2023-06-22T04:08:46;17.40;99.90
64951;DHT22;51482;47.014;7.652;2023-06-22T04:11:17;17.40;99.90
64951;DHT22;51482;47.014;7.652;2023-06-22T04:13:43;17.50;99.90
64951;DHT22;51482;47.014;7.652;2023-06-22T04:16:08;17.00;99.90
64951;DHT22;51482;47.014;7.652;2023-06-22T04:18:34;17.50;99.90
64951;DHT22;51482;47.014;7.652;2023-06-22T04:21:00;17.30;99.90
64951;DHT22;51482;47.014;7.652;2023-06-22T04:23:25;17.80;99.90
64951;DHT22;51482;47.014;7.652;2023-06-22T04:25:51;17.50;99.90
64951;DHT22;51482;47.014;7.652;2023-06-22T04:28:17;17.50;99.90
64951;DHT22;51482;47.014;7.652;2023-06-22T04:30:42;17.60;99.90
64951;DHT22;51482;47.014;7.652;2023-06-22T04:33:15;17.60;99.90
64951;DHT22;51482;47.014;7.652;2023-06-22T04:35:41;17.70;99.90
64951;DHT22;51482;47.014;7.652;2023-06-22T04:38:07;17.70;99.90
64951;DHT22;51482;47.014;7.652;2023-06-22T04:40:33;18.10;99.90
64951;DHT22;51482;47.014;7.652;2023-06-22T04:42:58;17.90;99.90
64951;DHT22;51482;47.014;7.652;2023-06-22T04:45:28;17.60;99.90
64951;DHT22;51482;47.014;7.652;2023-06-22T04:47:54;18.00;99.90
64951;DHT22;51482;47.014;7.652;2023-06-22T04:50:20;18.10;99.90
64951;DHT22;51482;47.014;7.652;2023-06-22T04:52:47;18.20;99.90
64951;DHT22;51482;47.014;7.652;2023-06-22T04:55:13;17.70;99.90
64951;DHT22;51482;47.014;7.652;2023-06-22T04:57:47;17.70;99.90
64951;DHT22;51482;47.014;7.652;2023-06-22T05:00:15;17.90;99.90
64951;DHT22;51482;47.014;7.652;2023-06-22T05:02:44;18.10;99.90
64951;DHT22;51482;47.014;7.652;2023-06-22T05:05:13;18.80;99.90
64951;DHT22;51482;47.014;7.652;2023-06-22T05:07:41;18.40;99.90
64951;DHT22;51482;47.014;7.652;2023-06-22T05:10:09;19.00;99.90
64951;DHT22;51482;47.014;7.652;2023-06-22T05:12:36;18.50;99.90
64951;DHT22;51482;47.014;7.652;2023-06-22T05:15:01;18.60;99.90
64951;DHT22;51482;47.014;7.652;2023-06-22T05:17:27;18.60;99.90
64951;DHT22;51482;47.014;7.652;2023-06-22T05:19:53;18.50;99.90
64951;DHT22;51482;47.014;7.652;2023-06-22T05:22:19;18.60;99.90
64951;DHT22;51482;47.014;7.652;2023-06-22T05:24:45;18.80;99.90
64951;DHT22;51482;47.014;7.652;2023-06-22T05:27:10;18.90;99.90
64951;DHT22;51482;47.014;7.652;2023-06-22T05:29:37;19.00;99.90
64951;DHT22;51482;47.014;7.652;2023-06-22T05:32:03;19.00;99.90
64951;DHT22;51482;47.014;7.652;2023-06-22T05:34:28;19.10;99.90
64951;DHT22;51482;47.014;7.652;2023-06-22T05:36:54;19.10;99.90
64951;DHT22;51482;47.014;7.652;2023-06-22T05:39:19;19.10;99.90
64951;DHT22;51482;47.014;7.652;2023-06-22T05:41:45;19.20;99.90
64951;DHT22;51482;47.014;7.652;2023-06-22T05:44:11;19.30;99.90
64951;DHT22;51482;47.014;7.652;2023-06-22T05:46:40;19.30;99.90
64951;DHT22;51482;47.014;7.652;2023-06-22T05:49:10;19.50;99.90
64951;DHT22;51482;47.014;7.652;2023-06-22T05:51:35;19.50;99.90
64951;DHT22;51482;47.014;7.652;2023-06-22T05:54:01;19.50;99.90
64951;DHT22;51482;47.014;7.652;2023-06-22T05:56:26;19.70;99.90
64951;DHT22;51482;47.014;7.652;2023-06-22T05:58:52;19.90;99.90
64951;DHT22;51482;47.014;7.652;2023-06-22T06:01:17;20.10;99.90
64951;DHT22;51482;47.014;7.652;2023-06-22T06:03:43;20.30;99.90
64951;DHT22;51482;47.014;7.652;2023-06-22T06:06:09;20.30;99.90
64951;DHT22;51482;47.014;7.652;2023-06-22T06:08:37;20.40;99.90
64951;DHT22;51482;47.014;7.652;2023-06-22T06:11:02;20.50;99.90
64951;DHT22;51482;47.014;7.652;2023-06-22T06:13:28;20.50;99.90
64951;DHT22;51482;47.014;7.652;2023-06-22T06:15:53;20.70;99.90
64951;DHT22;51482;47.014;7.652;2023-06-22T06:18:21;20.70;99.90
64951;DHT22;51482;47.014;7.652;2023-06-22T06:20:46;20.80;99.90
64951;DHT22;51482;47.014;7.652;2023-06-22T06:23:12;20.80;99.90
64951;DHT22;51482;47.014;7.652;2023-06-22T06:25:38;20.70;99.90
64951;DHT22;51482;47.014;7.652;2023-06-22T06:28:03;20.70;99.90
64951;DHT22;51482;47.014;7.652;2023-06-22T06:30:29;20.60;99.90
64951;DHT22;51482;47.014;7.652;2023-06-22T06:32:54;20.70;99.90
64951;DHT22;51482;47.014;7.652;2023-06-22T06:35:21;20.80;99.90
64951;DHT22;51482;47.014;7.652;2023-06-22T06:37:48;20.90;99.90
64951;DHT22;51482;47.014;7.652;2023-06-22T06:40:15;21.00;99.90
64951;DHT22;51482;47.014;7.652;2023-06-22T06:42:47;21.10;99.90
64951;DHT22;51482;47.014;7.652;2023-06-22T06:45:18;21.10;99.90
64951;DHT22;51482;47.014;7.652;2023-06-22T06:47:44;21.20;99.90
64951;DHT22;51482;47.014;7.652;2023-06-22T06:50:10;21.30;99.90
64951;DHT22;51482;47.014;7.652;2023-06-22T06:52:36;21.50;99.90
64951;DHT22;51482;47.014;7.652;2023-06-22T06:55:02;21.60;99.90
64951;DHT22;51482;47.014;7.652;2023-06-22T06:57:30;21.70;99.90
64951;DHT22;51482;47.014;7.652;2023-06-22T06:59:56;21.40;99.90
64951;DHT22;51482;47.014;7.652;2023-06-22T07:02:22;21.90;99.90
64951;DHT22;51482;47.014;7.652;2023-06-22T07:04:48;22.10;99.90
64951;DHT22;51482;47.014;7.652;2023-06-22T07:07:14;22.30;99.90
64951;DHT22;51482;47.014;7.652;2023-06-22T07:09:39;22.40;99.90
64951;DHT22;51482;47.014;7.652;2023-06-22T07:12:05;22.50;99.90
64951;DHT22;51482;47.014;7.652;2023-06-22T07:14:31;22.60;99.90
64951;DHT22;51482;47.014;7.652;2023-06-22T07:16:57;23.10;99.90
64951;DHT22;51482;47.014;7.652;2023-06-22T07:19:26;22.80;99.90
64951;DHT22;51482;47.014;7.652;2023-06-22T07:21:53;22.80;99.90
64951;DHT22;51482;47.014;7.652;2023-06-22T07:24:20;22.80;99.90
64951;DHT22;51482;47.014;7.652;2023-06-22T07:26:49;22.90;99.90
64951;DHT22;51482;47.014;7.652;2023-06-22T07:29:18;23.00;99.90
64951;DHT22;51482;47.014;7.652;2023-06-22T07:31:45;23.10;99.90
64951;DHT22;51482;47.014;7.652;2023-06-22T07:34:10;23.10;99.90
64951;DHT22;51482;47.014;7.652;2023-06-22T07:36:36;23.70;99.90
64951;DHT22;51482;47.014;7.652;2023-06-22T07:39:02;23.10;99.90
64951;DHT22;51482;47.014;7.652;2023-06-22T07:41:29;23.20;99.90
64951;DHT22;51482;47.014;7.652;2023-06-22T07:43:54;23.30;99.90
64951;DHT22;51482;47.014;7.652;2023-06-22T07:46:20;23.40;99.90
64951;DHT22;51482;47.014;7.652;2023-06-22T07:48:46;23.50;99.90
64951;DHT22;51482;47.014;7.652;2023-06-22T07:51:11;23.60;99.90
64951;DHT22;51482;47.014;7.652;2023-06-22T07:53:43;23.60;99.90
64951;DHT22;51482;47.014;7.652;2023-06-22T07:56:13;23.80;99.90
64951;DHT22;51482;47.014;7.652;2023-06-22T07:58:39;23.70;99.90
64951;DHT22;51482;47.014;7.652;2023-06-22T08:01:04;23.70;99.90
64951;DHT22;51482;47.014;7.652;2023-06-22T08:03:31;23.70;99.90
64951;DHT22;51482;47.014;7.652;2023-06-22T08:05:57;23.70;99.90
64951;DHT22;51482;47.014;7.652;2023-06-22T08:08:22;23.80;99.90
64951;DHT22;51482;47.014;7.652;2023-06-22T08:10:48;23.90;99.90
64951;DHT22;51482;47.014;7.652;2023-06-22T08:13:14;23.80;99.90
64951;DHT22;51482;47.014;7.652;2023-06-22T08:15:39;24.00;99.90
64951;DHT22;51482;47.014;7.652;2023-06-22T08:18:05;23.90;99.90
64951;DHT22;51482;47.014;7.652;2023-06-22T08:20:30;24.30;99.90
64951;DHT22;51482;47.014;7.652;2023-06-22T08:22:56;24.10;99.90
64951;DHT22;51482;47.014;7.652;2023-06-22T08:25:25;24.20;99.90
64951;DHT22;51482;47.014;7.652;2023-06-22T08:27:51;24.30;99.90
64951;DHT22;51482;47.014;7.652;2023-06-22T08:30:17;24.30;99.90
64951;DHT22;51482;47.014;7.652;2023-06-22T08:32:44;24.70;99.90
64951;DHT22;51482;47.014;7.652;2023-06-22T08:35:09;24.90;99.90
64951;DHT22;51482;47.014;7.652;2023-06-22T08:37:36;24.50;99.90
64951;DHT22;51482;47.014;7.652;2023-06-22T08:40:06;25.40;99.90
64951;DHT22;51482;47.014;7.652;2023-06-22T08:42:36;24.60;99.90
64951;DHT22;51482;47.014;7.652;2023-06-22T08:45:01;24.60;99.90
64951;DHT22;51482;47.014;7.652;2023-06-22T08:47:28;24.60;99.90
64951;DHT22;51482;47.014;7.652;2023-06-22T08:49:54;24.60;99.90
64951;DHT22;51482;47.014;7.652;2023-06-22T08:52:20;24.70;99.90
64951;DHT22;51482;47.014;7.652;2023-06-22T08:54:46;25.20;99.90
64951;DHT22;51482;47.014;7.652;2023-06-22T08:57:11;25.00;99.90
64951;DHT22;51482;47.014;7.652;2023-06-22T08:59:37;25.10;99.90
64951;DHT22;51482;47.014;7.652;2023-06-22T09:02:03;25.20;99.90
64951;DHT22;51482;47.014;7.652;2023-06-22T09:04:28;25.30;99.90
64951;DHT22;51482;47.014;7.652;2023-06-22T09:06:54;25.40;99.90
64951;DHT22;51482;47.014;7.652;2023-06-22T09:09:21;25.70;99.90
64951;DHT22;51482;47.014;7.652;2023-06-22T09:11:47;25.30;99.90
64951;DHT22;51482;47.014;7.652;2023-06-22T09:14:12;25.30;99.90
64951;DHT22;51482;47.014;7.652;2023-06-22T09:16:38;25.30;99.90
64951;DHT22;51482;47.014;7.652;2023-06-22T09:19:04;25.30;99.90
64951;DHT22;51482;47.014;7.652;2023-06-22T09:21:29;25.30;99.90
64951;DHT22;51482;47.014;7.652;2023-06-22T09:23:55;25.30;99.90
64951;DHT22;51482;47.014;7.652;2023-06-22T09:26:21;25.30;99.90
64951;DHT22;51482;47.014;7.652;2023-06-22T09:28:47;25.40;99.90
64951;DHT22;51482;47.014;7.652;2023-06-22T09:31:13;25.40;99.90
64951;DHT22;51482;47.014;7.652;2023-06-22T09:33:40;25.60;99.90
64951;DHT22;51482;47.014;7.652;2023-06-22T09:36:09;25.70;99.90
64951;DHT22;51482;47.014;7.652;2023-06-22T09:38:38;26.20;99.90
64951;DHT22;51482;47.014;7.652;2023-06-22T09:41:04;25.40;99.90
64951;DHT22;51482;47.014;7.652;2023-06-22T09:43:32;25.80;99.90
64951;DHT22;51482;47.014;7.652;2023-06-22T09:45:57;25.90;99.90
64951;DHT22;51482;47.014;7.652;2023-06-22T09:48:23;25.90;99.90
64951;DHT22;51482;47.014;7.652;2023-06-22T09:50:49;25.90;99.90
64951;DHT22;51482;47.014;7.652;2023-06-22T09:53:14;25.80;99.90
64951;DHT22;51482;47.014;7.652;2023-06-22T09:55:40;25.80;99.90
64951;DHT22;51482;47.014;7.652;2023-06-22T09:58:05;26.00;99.90
64951;DHT22;51482;47.014;7.652;2023-06-22T10:00:31;26.00;99.90
64951;DHT22;51482;47.014;7.652;2023-06-22T10:02:57;25.70;99.90
64951;DHT22;51482;47.014;7.652;2023-06-22T10:05:24;25.70;99.90
64951;DHT22;51482;47.014;7.652;2023-06-22T10:07:50;25.60;99.90
64951;DHT22;51482;47.014;7.652;2023-06-22T10:10:16;25.60;99.90
64951;DHT22;51482;47.014;7.652;2023-06-22T10:12:55;25.60;99.90
64951;DHT22;51482;47.014;7.652;2023-06-22T10:15:20;25.60;99.90
64951;DHT22;51482;47.014;7.652;2023-06-22T10:17:47;25.50;99.90
64951;DHT22;51482;47.014;7.652;2023-06-22T10:20:13;25.50;99.90
64951;DHT22;51482;47.014;7.652;2023-06-22T10:22:43;25.40;99.90
64951;DHT22;51482;47.014;7.652;2023-06-22T10:25:10;25.30;99.90
64951;DHT22;51482;47.014;7.652;2023-06-22T10:27:36;25.20;99.90
64951;DHT22;51482;47.014;7.652;2023-06-22T10:30:02;25.60;99.90
64951;DHT22;51482;47.014;7.652;2023-06-22T10:32:27;25.10;99.90
64951;DHT22;51482;47.014;7.652;2023-06-22T10:34:54;25.00;99.90
64951;DHT22;51482;47.014;7.652;2023-06-22T10:37:19;25.00;99.90
64951;DHT22;51482;47.014;7.652;2023-06-22T10:39:45;24.90;99.90
64951;DHT22;51482;47.014;7.652;2023-06-22T10:42:12;25.80;99.90
64951;DHT22;51482;47.014;7.652;2023-06-22T10:44:38;24.80;99.90
64951;DHT22;51482;47.014;7.652;2023-06-22T10:47:06;24.70;99.90
64951;DHT22;51482;47.014;7.652;2023-06-22T10:49:31;24.70;99.90
64951;DHT22;51482;47.014;7.652;2023-06-22T10:51:57;24.70;99.90
64951;DHT22;51482;47.014;7.652;2023-06-22T10:54:22;24.80;99.90
64951;DHT22;51482;47.014;7.652;2023-06-22T10:56:48;25.00;99.90
64951;DHT22;51482;47.014;7.652;2023-06-22T10:59:14;25.00;99.90
64951;DHT22;51482;47.014;7.652;2023-06-22T11:01:40;25.00;99.90
64951;DHT22;51482;47.014;7.652;2023-06-22T11:04:05;25.60;99.90
64951;DHT22;51482;47.014;7.652;2023-06-22T11:06:31;25.10;99.90
64951;DHT22;51482;47.014;7.652;2023-06-22T11:08:56;25.10;99.90
64951;DHT22;51482;47.014;7.652;2023-06-22T11:11:24;25.80;99.90
64951;DHT22;51482;47.014;7.652;2023-06-22T11:13:50;25.30;99.90
64951;DHT22;51482;47.014;7.652;2023-06-22T11:16:16;25.40;99.90
64951;DHT22;51482;47.014;7.652;2023-06-22T11:18:41;25.70;99.90
64951;DHT22;51482;47.014;7.652;2023-06-22T11:21:07;25.60;99.90
64951;DHT22;51482;47.014;7.652;2023-06-22T11:23:32;25.60;99.90
64951;DHT22;51482;47.014;7.652;2023-06-22T11:25:58;25.70;99.90
64951;DHT22;51482;47.014;7.652;2023-06-22T11:28:23;25.70;99.90
64951;DHT22;51482;47.014;7.652;2023-06-22T11:30:49;25.60;99.90
64951;DHT22;51482;47.014;7.652;2023-06-22T11:33:15;26.30;99.90
64951;DHT22;51482;47.014;7.652;2023-06-22T11:35:40;25.70;99.90
64951;DHT22;51482;47.014;7.652;2023-06-22T11:38:06;25.70;99.90
64951;DHT22;51482;47.014;7.652;2023-06-22T11:40:31;25.30;99.90
64951;DHT22;51482;47.014;7.652;2023-06-22T11:42:57;25.70;99.90
64951;DHT22;51482;47.014;7.652;2023-06-22T11:45:22;25.50;99.90
64951;DHT22;51482;47.014;7.652;2023-06-22T11:47:48;25.70;99.90
64951;DHT22;51482;47.014;7.652;2023-06-22T11:50:14;25.60;99.90
64951;DHT22;51482;47.014;7.652;2023-06-22T11:52:39;25.50;99.90
64951;DHT22;51482;47.014;7.652;2023-06-22T11:55:05;25.50;99.90
64951;DHT22;51482;47.014;7.652;2023-06-22T11:57:35;25.30;99.90
64951;DHT22;51482;47.014;7.652;2023-06-22T12:00:02;25.30;99.90
64951;DHT22;51482;47.014;7.652;2023-06-22T12:02:31;25.30;99.90
64951;DHT22;51482;47.014;7.652;2023-06-22T12:04:57;25.10;99.90
64951;DHT22;51482;47.014;7.652;2023-06-22T12:07:23;25.10;99.90
64951;DHT22;51482;47.014;7.652;2023-06-22T12:09:49;25.20;99.90
64951;DHT22;51482;47.014;7.652;2023-06-22T12:12:15;25.30;99.90
64951;DHT22;51482;47.014;7.652;2023-06-22T12:14:40;25.30;99.90
64951;DHT22;51482;47.014;7.652;2023-06-22T12:17:06;25.50;99.90
64951;DHT22;51482;47.014;7.652;2023-06-22T12:19:31;25.30;99.90
64951;DHT22;51482;47.014;7.652;2023-06-22T12:21:57;25.70;99.90
64951;DHT22;51482;47.014;7.652;2023-06-22T12:24:22;25.80;99.90
64951;DHT22;51482;47.014;7.652;2023-06-22T12:26:48;25.90;99.90
64951;DHT22;51482;47.014;7.652;2023-06-22T12:29:14;26.10;99.90
64951;DHT22;51482;47.014;7.652;2023-06-22T12:31:39;26.20;99.90
64951;DHT22;51482;47.014;7.652;2023-06-22T12:34:05;26.30;99.90
64951;DHT22;51482;47.014;7.652;2023-06-22T12:36:31;26.40;99.90
64951;DHT22;51482;47.014;7.652;2023-06-22T12:38:56;25.80;99.90
64951;DHT22;51482;47.014;7.652;2023-06-22T12:41:22;26.30;99.90
64951;DHT22;51482;47.014;7.652;2023-06-22T12:43:47;26.20;99.90
64951;DHT22;51482;47.014;7.652;2023-06-22T12:46:13;26.30;99.90
64951;DHT22;51482;47.014;7.652;2023-06-22T12:48:38;26.20;99.90
64951;DHT22;51482;47.014;7.652;2023-06-22T12:51:08;26.20;99.90
64951;DHT22;51482;47.014;7.652;2023-06-22T12:53:34;26.10;99.90
64951;DHT22;51482;47.014;7.652;2023-06-22T12:56:00;25.90;99.90
64951;DHT22;51482;47.014;7.652;2023-06-22T12:58:25;25.80;99.90
64951;DHT22;51482;47.014;7.652;2023-06-22T13:00:51;25.70;99.90
64951;DHT22;51482;47.014;7.652;2023-06-22T13:03:16;25.70;99.90
64951;DHT22;51482;47.014;7.652;2023-06-22T13:05:42;25.70;99.90
64951;DHT22;51482;47.014;7.652;2023-06-22T13:08:07;25.80;99.90
64951;DHT22;51482;47.014;7.652;2023-06-22T13:10:33;25.60;99.90
64951;DHT22;51482;47.014;7.652;2023-06-22T13:12:59;25.50;99.90
64951;DHT22;51482;47.014;7.652;2023-06-22T13:15:27;25.50;99.90
64951;DHT22;51482;47.014;7.652;2023-06-22T13:17:53;25.40;99.90
64951;DHT22;51482;47.014;7.652;2023-06-22T13:20:19;25.30;99.90
64951;DHT22;51482;47.014;7.652;2023-06-22T13:22:45;25.10;99.90
64951;DHT22;51482;47.014;7.652;2023-06-22T13:25:10;25.10;99.90
64951;DHT22;51482;47.014;7.652;2023-06-22T13:27:39;25.40;99.90
64951;DHT22;51482;47.014;7.652;2023-06-22T13:30:05;25.20;99.90
64951;DHT22;51482;47.014;7.652;2023-06-22T13:32:30;25.10;99.90
64951;DHT22;51482;47.014;7.652;2023-06-22T13:34:56;25.30;99.90
64951;DHT22;51482;47.014;7.652;2023-06-22T13:37:21;25.90;99.90
64951;DHT22;51482;47.014;7.652;2023-06-22T13:39:47;25.50;99.90
64951;DHT22;51482;47.014;7.652;2023-06-22T13:42:12;25.60;99.90
64951;DHT22;51482;47.014;7.652;2023-06-22T13:44:38;25.60;99.90
64951;DHT22;51482;47.014;7.652;2023-06-22T13:47:04;25.80;99.90
64951;DHT22;51482;47.014;7.652;2023-06-22T13:49:30;26.10;99.90
64951;DHT22;51482;47.014;7.652;2023-06-22T13:51:56;26.50;99.90
64951;DHT22;51482;47.014;7.652;2023-06-22T13:54:21;26.90;99.90
64951;DHT22;51482;47.014;7.652;2023-06-22T13:56:47;27.10;99.90
64951;DHT22;51482;47.014;7.652;2023-06-22T13:59:12;27.10;99.90
64951;DHT22;51482;47.014;7.652;2023-06-22T14:01:38;26.90;99.90
64951;DHT22;51482;47.014;7.652;2023-06-22T14:04:07;26.90;99.90
64951;DHT22;51482;47.014;7.652;2023-06-22T14:06:32;26.80;99.90
64951;DHT22;51482;47.014;7.652;2023-06-22T14:08:58;26.60;99.90
64951;DHT22;51482;47.014;7.652;2023-06-22T14:11:24;26.50;99.90
64951;DHT22;51482;47.014;7.652;2023-06-22T14:13:50;27.10;99.90
64951;DHT22;51482;47.014;7.652;2023-06-22T14:16:16;26.30;99.90
64951;DHT22;51482;47.014;7.652;2023-06-22T14:18:41;26.20;99.90
64951;DHT22;51482;47.014;7.652;2023-06-22T14:21:07;26.10;99.90
64951;DHT22;51482;47.014;7.652;2023-06-22T14:23:33;26.10;99.90
64951;DHT22;51482;47.014;7.652;2023-06-22T14:25:58;26.60;99.90
64951;DHT22;51482;47.014;7.652;2023-06-22T14:28:24;25.90;99.90
64951;DHT22;51482;47.014;7.652;2023-06-22T14:30:49;25.80;99.90
64951;DHT22;51482;47.014;7.652;2023-06-22T14:33:15;25.70;99.90
64951;DHT22;51482;47.014;7.652;2023-06-22T14:35:40;25.50;99.90
64951;DHT22;51482;47.014;7.652;2023-06-22T14:38:06;25.20;99.90
64951;DHT22;51482;47.014;7.652;2023-06-22T14:40:32;25.00;99.90
64951;DHT22;51482;47.014;7.652;2023-06-22T14:42:57;24.80;99.90
64951;DHT22;51482;47.014;7.652;2023-06-22T14:45:23;24.50;99.90
64951;DHT22;51482;47.014;7.652;2023-06-22T14:47:49;24.30;99.90
64951;DHT22;51482;47.014;7.652;2023-06-22T14:50:15;24.20;99.90
64951;DHT22;51482;47.014;7.652;2023-06-22T14:52:40;24.10;99.90
64951;DHT22;51482;47.014;7.652;2023-06-22T14:55:06;24.40;99.90
64951;DHT22;51482;47.014;7.652;2023-06-22T14:57:32;23.90;99.90
64951;DHT22;51482;47.014;7.652;2023-06-22T14:59:57;23.80;99.90
64951;DHT22;51482;47.014;7.652;2023-06-22T15:02:23;24.00;99.90
64951;DHT22;51482;47.014;7.652;2023-06-22T15:04:49;23.60;99.90
64951;DHT22;51482;47.014;7.652;2023-06-22T15:07:14;23.40;99.90
64951;DHT22;51482;47.014;7.652;2023-06-22T15:09:40;23.20;99.90
64951;DHT22;51482;47.014;7.652;2023-06-22T15:12:08;23.10;99.90
64951;DHT22;51482;47.014;7.652;2023-06-22T15:14:40;23.00;99.90
64951;DHT22;51482;47.014;7.652;2023-06-22T15:17:06;22.80;99.90
64951;DHT22;51482;47.014;7.652;2023-06-22T15:19:37;22.70;99.90
64951;DHT22;51482;47.014;7.652;2023-06-22T15:22:07;22.80;99.90
64951;DHT22;51482;47.014;7.652;2023-06-22T15:24:33;22.70;99.90
64951;DHT22;51482;47.014;7.652;2023-06-22T15:26:59;22.80;99.90
64951;DHT22;51482;47.014;7.652;2023-06-22T15:29:25;22.70;99.90